createdAt,value
2023-01-18T00:00:50.829Z,0.00
2023-01-18T00:01:50.918Z,0.00
2023-01-18T00:02:50.808Z,0.00
2023-01-18T00:03:50.806Z,0.00
2023-01-18T00:04:50.803Z,0.00
2023-01-18T00:05:50.792Z,0.00
2023-01-18T00:06:50.789Z,0.00
2023-01-18T00:07:50.766Z,0.00
2023-01-18T00:08:50.761Z,0.00
2023-01-18T00:09:50.763Z,0.00
2023-01-18T00:10:50.739Z,0.00
2023-01-18T00:11:50.740Z,0.00
2023-01-18T00:12:50.719Z,0.00
2023-01-18T00:13:50.714Z,0.00
2023-01-18T00:14:50.710Z,0.00
2023-01-18T00:15:50.694Z,0.00
2023-01-18T00:16:50.692Z,0.00
2023-01-18T00:17:50.671Z,0.00
2023-01-18T00:18:50.669Z,0.00
2023-01-18T00:19:50.661Z,0.00
2023-01-18T00:20:50.645Z,0.00
2023-01-18T00:21:50.662Z,0.00
2023-01-18T00:22:50.642Z,0.00
2023-01-18T00:23:50.623Z,0.00
2023-01-18T00:24:51.612Z,0.00
2023-01-18T00:25:50.601Z,0.00
2023-01-18T00:26:50.603Z,0.00
2023-01-18T00:27:50.584Z,0.00
2023-01-18T00:28:50.583Z,0.00
2023-01-18T00:29:50.561Z,0.00
2023-01-18T00:30:50.552Z,0.00
2023-01-18T00:31:50.613Z,0.00
2023-01-18T00:32:50.535Z,0.00
2023-01-18T00:33:50.529Z,0.00
2023-01-18T00:34:50.670Z,0.00
2023-01-18T00:35:51.503Z,0.00
2023-01-18T00:36:50.504Z,0.00
2023-01-18T00:37:51.494Z,0.00
2023-01-18T00:38:50.482Z,0.00
2023-01-18T00:39:50.474Z,0.00
2023-01-18T00:40:50.463Z,0.00
2023-01-18T00:41:50.465Z,0.00
2023-01-18T00:42:50.451Z,0.00
2023-01-18T00:43:50.431Z,0.00
2023-01-18T00:44:50.428Z,0.00
2023-01-18T00:45:50.429Z,0.00
2023-01-18T00:46:50.417Z,0.00
2023-01-18T00:47:50.410Z,0.00
2023-01-18T00:48:50.393Z,0.00
2023-01-18T00:49:50.376Z,0.00
2023-01-18T00:50:50.374Z,0.00
2023-01-18T00:51:50.370Z,0.00
2023-01-18T00:52:50.349Z,0.00
2023-01-18T00:53:50.340Z,0.00
2023-01-18T00:54:50.337Z,0.00
2023-01-18T00:55:50.333Z,0.00
2023-01-18T00:56:50.327Z,0.00
2023-01-18T00:57:50.296Z,0.00
2023-01-18T00:58:50.289Z,0.00
2023-01-18T00:59:50.283Z,0.00
2023-01-18T01:00:50.422Z,0.00
2023-01-18T01:01:50.389Z,0.00
2023-01-18T01:02:50.289Z,0.00
2023-01-18T01:03:50.260Z,0.00
2023-01-18T01:04:50.245Z,0.00
2023-01-18T01:05:50.229Z,0.00
2023-01-18T01:06:50.220Z,0.00
2023-01-18T01:07:50.221Z,0.00
2023-01-18T01:08:50.222Z,0.00
2023-01-18T01:09:50.195Z,0.00
2023-01-18T01:10:50.179Z,0.00
2023-01-18T01:11:50.177Z,0.00
2023-01-18T01:12:50.179Z,0.00
2023-01-18T01:13:50.161Z,0.00
2023-01-18T01:14:50.147Z,0.00
2023-01-18T01:15:50.140Z,0.00
2023-01-18T01:16:50.159Z,0.00
2023-01-18T01:17:50.136Z,0.00
2023-01-18T01:18:50.106Z,0.00
2023-01-18T01:19:50.110Z,0.00
2023-01-18T01:20:50.099Z,0.00
2023-01-18T01:21:50.089Z,0.00
2023-01-18T01:22:50.091Z,0.00
2023-01-18T01:23:50.067Z,0.00
2023-01-18T01:24:50.061Z,0.00
2023-01-18T01:25:50.052Z,0.00
2023-01-18T01:26:50.046Z,0.00
2023-01-18T01:27:50.046Z,0.00
2023-01-18T01:28:51.025Z,0.00
2023-01-18T01:29:50.019Z,0.00
2023-01-18T01:30:50.049Z,0.00
2023-01-18T01:31:49.994Z,0.00
2023-01-18T01:32:50.096Z,0.00
2023-01-18T01:33:49.990Z,0.00
2023-01-18T01:34:49.971Z,0.00
2023-01-18T01:35:49.985Z,0.00
2023-01-18T01:36:49.948Z,0.00
2023-01-18T01:37:49.955Z,0.00
2023-01-18T01:38:49.932Z,0.00
2023-01-18T01:39:49.920Z,0.00
2023-01-18T01:40:49.908Z,0.00
2023-01-18T01:41:49.903Z,0.00
2023-01-18T01:42:49.909Z,0.00
2023-01-18T01:43:49.885Z,0.00
2023-01-18T01:44:49.877Z,0.00
2023-01-18T01:45:49.890Z,0.00
2023-01-18T01:46:49.863Z,0.00
2023-01-18T01:47:49.859Z,0.00
2023-01-18T01:48:49.848Z,0.00
2023-01-18T01:49:49.832Z,0.00
2023-01-18T01:50:49.813Z,0.00
2023-01-18T01:51:49.815Z,0.00
2023-01-18T01:52:49.814Z,0.00
2023-01-18T01:53:49.799Z,0.00
2023-01-18T01:54:49.784Z,0.00
2023-01-18T01:55:49.777Z,0.00
2023-01-18T01:56:49.768Z,0.00
2023-01-18T01:57:49.768Z,0.00
2023-01-18T01:58:49.751Z,0.00
2023-01-18T01:59:49.744Z,0.00
2023-01-18T02:00:49.833Z,0.00
2023-01-18T02:01:49.887Z,0.00
2023-01-18T02:02:49.784Z,0.00
2023-01-18T02:03:49.734Z,0.00
2023-01-18T02:04:49.696Z,0.00
2023-01-18T02:05:49.683Z,0.00
2023-01-18T02:06:49.679Z,0.00
2023-01-18T02:07:49.695Z,0.00
2023-01-18T02:08:49.660Z,0.00
2023-01-18T02:09:49.657Z,0.00
2023-01-18T02:10:49.647Z,0.00
2023-01-18T02:11:49.632Z,0.00
2023-01-18T02:12:49.638Z,0.00
2023-01-18T02:13:49.615Z,0.00
2023-01-18T02:14:49.610Z,0.00
2023-01-18T02:15:49.596Z,0.00
2023-01-18T02:16:49.641Z,0.00
2023-01-18T02:17:49.591Z,0.00
2023-01-18T02:18:49.571Z,0.00
2023-01-18T02:19:49.562Z,0.00
2023-01-18T02:20:49.553Z,0.00
2023-01-18T02:21:49.538Z,0.00
2023-01-18T02:22:49.540Z,0.00
2023-01-18T02:23:49.524Z,0.00
2023-01-18T02:24:49.523Z,0.00
2023-01-18T02:25:49.511Z,0.00
2023-01-18T02:26:49.497Z,0.00
2023-01-18T02:27:49.501Z,0.00
2023-01-18T02:28:49.482Z,0.00
2023-01-18T02:29:49.492Z,0.00
2023-01-18T02:30:49.495Z,0.00
2023-01-18T02:31:49.454Z,0.00
2023-01-18T02:32:49.455Z,0.00
2023-01-18T02:33:49.444Z,0.00
2023-01-18T02:34:49.426Z,0.00
2023-01-18T02:35:49.418Z,0.00
2023-01-18T02:36:49.409Z,0.00
2023-01-18T02:37:49.412Z,0.00
2023-01-18T02:38:49.388Z,0.00
2023-01-18T02:39:49.382Z,0.00
2023-01-18T02:40:49.372Z,0.00
2023-01-18T02:41:49.361Z,0.00
2023-01-18T02:42:49.374Z,0.00
2023-01-18T02:43:49.340Z,0.00
2023-01-18T02:44:49.338Z,0.00
2023-01-18T02:45:49.351Z,0.00
2023-01-18T02:46:49.314Z,0.00
2023-01-18T02:47:49.316Z,0.00
2023-01-18T02:48:49.298Z,0.00
2023-01-18T02:49:49.288Z,0.00
2023-01-18T02:50:49.275Z,0.00
2023-01-18T02:51:50.285Z,0.00
2023-01-18T02:52:49.269Z,0.00
2023-01-18T02:53:49.249Z,0.00
2023-01-18T02:54:49.244Z,0.00
2023-01-18T02:55:49.233Z,0.00
2023-01-18T02:56:49.225Z,0.00
2023-01-18T02:57:49.226Z,0.00
2023-01-18T02:58:49.209Z,0.00
2023-01-18T02:59:49.194Z,0.00
2023-01-18T03:00:49.220Z,0.00
2023-01-18T03:01:49.237Z,0.00
2023-01-18T03:02:49.221Z,0.00
2023-01-18T03:03:49.168Z,0.00
2023-01-18T03:04:49.155Z,0.00
2023-01-18T03:05:49.149Z,0.00
2023-01-18T03:06:49.137Z,0.00
2023-01-18T03:07:49.138Z,0.00
2023-01-18T03:08:49.119Z,0.00
2023-01-18T03:09:49.106Z,0.00
2023-01-18T03:10:49.101Z,0.00
2023-01-18T03:11:49.093Z,0.00
2023-01-18T03:12:49.105Z,0.00
2023-01-18T03:13:49.083Z,0.00
2023-01-18T03:14:49.068Z,0.00
2023-01-18T03:15:49.118Z,0.00
2023-01-18T03:16:49.046Z,0.00
2023-01-18T03:17:49.054Z,0.00
2023-01-18T03:18:49.026Z,0.00
2023-01-18T03:19:49.033Z,0.00
2023-01-18T03:20:49.010Z,0.00
2023-01-18T03:21:49.001Z,0.00
2023-01-18T03:22:48.998Z,0.00
2023-01-18T03:23:48.982Z,0.00
2023-01-18T03:24:48.977Z,0.00
2023-01-18T03:25:48.966Z,0.00
2023-01-18T03:26:49.001Z,0.00
2023-01-18T03:27:48.963Z,0.00
2023-01-18T03:28:48.948Z,0.00
2023-01-18T03:29:48.927Z,0.00
2023-01-18T03:30:48.940Z,0.00
2023-01-18T03:31:48.908Z,0.00
2023-01-18T03:32:48.919Z,0.00
2023-01-18T03:33:48.884Z,0.00
2023-01-18T03:34:48.882Z,0.00
2023-01-18T03:35:48.871Z,0.00
2023-01-18T03:36:48.861Z,0.00
2023-01-18T03:37:48.865Z,0.00
2023-01-18T03:38:48.844Z,0.00
2023-01-18T03:39:48.832Z,0.00
2023-01-18T03:40:48.822Z,0.00
2023-01-18T03:41:48.811Z,0.00
2023-01-18T03:42:48.807Z,0.00
2023-01-18T03:43:48.805Z,0.00
2023-01-18T03:44:48.781Z,0.00
2023-01-18T03:45:48.779Z,0.00
2023-01-18T03:46:48.775Z,0.00
2023-01-18T03:47:48.763Z,0.00
2023-01-18T03:48:48.763Z,0.00
2023-01-18T03:49:48.744Z,0.00
2023-01-18T03:50:48.727Z,0.00
2023-01-18T03:51:48.727Z,0.00
2023-01-18T03:52:48.712Z,0.00
2023-01-18T03:53:48.714Z,0.00
2023-01-18T03:54:48.695Z,0.00
2023-01-18T03:55:48.685Z,0.00
2023-01-18T03:56:48.683Z,0.00
2023-01-18T03:57:48.677Z,0.00
2023-01-18T03:58:48.671Z,0.00
2023-01-18T03:59:48.647Z,0.00
2023-01-18T04:00:48.653Z,0.00
2023-01-18T04:01:48.702Z,0.00
2023-01-18T04:02:48.692Z,0.00
2023-01-18T04:03:48.620Z,0.00
2023-01-18T04:04:48.598Z,0.00
2023-01-18T04:05:48.595Z,0.00
2023-01-18T04:06:48.576Z,0.00
2023-01-18T04:07:49.576Z,0.00
2023-01-18T04:08:48.577Z,0.00
2023-01-18T04:09:48.559Z,0.00
2023-01-18T04:10:48.539Z,0.00
2023-01-18T04:11:48.548Z,0.00
2023-01-18T04:12:48.528Z,0.00
2023-01-18T04:13:48.534Z,0.00
2023-01-18T04:14:48.507Z,0.00
2023-01-18T04:15:48.538Z,0.00
2023-01-18T04:16:48.491Z,0.00
2023-01-18T04:17:48.481Z,0.00
2023-01-18T04:18:48.483Z,0.00
2023-01-18T04:19:48.465Z,0.00
2023-01-18T04:20:48.459Z,0.00
2023-01-18T04:21:48.487Z,0.00
2023-01-18T04:22:48.438Z,0.00
2023-01-18T04:23:48.441Z,0.00
2023-01-18T04:24:48.420Z,0.00
2023-01-18T04:25:48.413Z,0.00
2023-01-18T04:26:48.418Z,0.00
2023-01-18T04:27:48.399Z,0.00
2023-01-18T04:28:48.402Z,0.00
2023-01-18T04:29:48.372Z,0.00
2023-01-18T04:30:48.365Z,0.00
2023-01-18T04:31:48.356Z,0.00
2023-01-18T04:32:48.353Z,0.00
2023-01-18T04:33:48.344Z,0.00
2023-01-18T04:34:48.329Z,0.00
2023-01-18T04:35:48.340Z,0.00
2023-01-18T04:36:48.311Z,0.00
2023-01-18T04:37:48.301Z,0.00
2023-01-18T04:38:48.306Z,0.00
2023-01-18T04:39:48.282Z,0.00
2023-01-18T04:40:48.274Z,0.00
2023-01-18T04:41:48.264Z,0.00
2023-01-18T04:42:48.252Z,0.00
2023-01-18T04:43:48.259Z,0.00
2023-01-18T04:44:48.270Z,0.00
2023-01-18T04:45:48.223Z,0.00
2023-01-18T04:46:48.233Z,0.00
2023-01-18T04:47:48.203Z,0.00
2023-01-18T04:48:48.204Z,0.00
2023-01-18T04:49:48.193Z,0.00
2023-01-18T04:50:48.183Z,0.00
2023-01-18T04:51:48.177Z,0.00
2023-01-18T04:52:48.168Z,0.00
2023-01-18T04:53:48.160Z,0.00
2023-01-18T04:54:48.146Z,0.00
2023-01-18T04:55:48.137Z,0.00
2023-01-18T04:56:48.116Z,0.00
2023-01-18T04:57:48.107Z,0.00
2023-01-18T04:58:49.129Z,0.00
2023-01-18T04:59:48.090Z,0.00
2023-01-18T05:00:48.150Z,0.00
2023-01-18T05:02:20.015Z,0.00
2023-01-18T05:02:48.067Z,0.00
2023-01-18T05:03:48.067Z,0.00
2023-01-18T05:04:48.042Z,0.00
2023-01-18T05:05:48.038Z,0.00
2023-01-18T05:06:48.045Z,0.00
2023-01-18T05:07:48.015Z,0.00
2023-01-18T05:08:48.021Z,0.00
2023-01-18T05:09:47.996Z,0.00
2023-01-18T05:10:47.986Z,0.00
2023-01-18T05:11:47.995Z,0.00
2023-01-18T05:12:47.966Z,0.00
2023-01-18T05:13:47.975Z,0.00
2023-01-18T05:14:47.948Z,0.00
2023-01-18T05:15:47.945Z,0.00
2023-01-18T05:16:47.930Z,0.00
2023-01-18T05:17:47.918Z,0.00
2023-01-18T05:18:47.921Z,0.00
2023-01-18T05:19:47.900Z,0.00
2023-01-18T05:20:47.881Z,0.00
2023-01-18T05:21:48.883Z,0.00
2023-01-18T05:22:47.874Z,0.00
2023-01-18T05:23:47.883Z,0.00
2023-01-18T05:24:47.856Z,0.00
2023-01-18T05:25:47.846Z,0.00
2023-01-18T05:26:47.857Z,0.00
2023-01-18T05:27:47.832Z,0.00
2023-01-18T05:28:47.834Z,0.00
2023-01-18T05:29:47.809Z,0.00
2023-01-18T05:30:47.801Z,0.00
2023-01-18T05:31:47.824Z,0.00
2023-01-18T05:32:47.780Z,0.00
2023-01-18T05:33:47.789Z,0.00
2023-01-18T05:34:47.766Z,0.00
2023-01-18T05:35:47.753Z,0.00
2023-01-18T05:36:47.742Z,0.00
2023-01-18T05:37:47.736Z,0.00
2023-01-18T05:38:47.736Z,0.00
2023-01-18T05:39:47.714Z,0.00
2023-01-18T05:40:47.705Z,0.00
2023-01-18T05:41:47.696Z,0.00
2023-01-18T05:42:47.689Z,0.00
2023-01-18T05:43:47.689Z,0.00
2023-01-18T05:44:47.670Z,0.00
2023-01-18T05:45:47.690Z,0.00
2023-01-18T05:46:47.650Z,0.00
2023-01-18T05:47:47.640Z,0.00
2023-01-18T05:48:47.639Z,0.00
2023-01-18T05:49:47.661Z,0.00
2023-01-18T05:50:47.624Z,0.00
2023-01-18T05:51:47.644Z,0.00
2023-01-18T05:52:47.596Z,0.00
2023-01-18T05:53:47.607Z,0.00
2023-01-18T05:54:47.584Z,0.00
2023-01-18T05:55:47.573Z,0.00
2023-01-18T05:56:47.565Z,0.00
2023-01-18T05:57:47.777Z,0.00
2023-01-18T05:58:48.558Z,0.00
2023-01-18T05:59:47.537Z,0.00
2023-01-18T06:00:47.554Z,0.00
2023-01-18T06:01:47.572Z,0.00
2023-01-18T06:02:48.507Z,0.00
2023-01-18T06:03:47.520Z,0.00
2023-01-18T06:04:47.494Z,0.00
2023-01-18T06:05:47.484Z,0.00
2023-01-18T06:06:47.479Z,0.00
2023-01-18T06:07:47.469Z,0.00
2023-01-18T06:08:47.489Z,0.00
2023-01-18T06:09:47.445Z,0.00
2023-01-18T06:10:47.440Z,0.00
2023-01-18T06:11:47.428Z,0.00
2023-01-18T06:12:48.433Z,0.00
2023-01-18T06:13:47.431Z,0.00
2023-01-18T06:14:47.400Z,0.00
2023-01-18T06:15:49.588Z,0.00
2023-01-18T06:16:48.451Z,0.00
2023-01-18T06:17:47.382Z,0.00
2023-01-18T06:18:47.376Z,0.00
2023-01-18T06:19:47.353Z,0.00
2023-01-18T06:20:47.341Z,0.00
2023-01-18T06:21:47.336Z,0.00
2023-01-18T06:22:47.322Z,0.00
2023-01-18T06:23:47.329Z,0.00
2023-01-18T06:24:47.313Z,0.00
2023-01-18T06:25:47.321Z,0.00
2023-01-18T06:26:47.339Z,0.00
2023-01-18T06:27:47.281Z,0.00
2023-01-18T06:28:47.293Z,0.00
2023-01-18T06:29:47.265Z,0.00
2023-01-18T06:30:47.251Z,0.00
2023-01-18T06:31:47.285Z,0.00
2023-01-18T06:32:47.243Z,0.00
2023-01-18T06:33:47.263Z,0.00
2023-01-18T06:34:47.222Z,0.00
2023-01-18T06:35:47.212Z,0.00
2023-01-18T06:36:47.215Z,0.00
2023-01-18T06:37:47.194Z,0.00
2023-01-18T06:38:47.190Z,0.00
2023-01-18T06:39:47.175Z,0.00
2023-01-18T06:40:47.180Z,0.00
2023-01-18T06:41:47.153Z,0.00
2023-01-18T06:42:47.143Z,0.00
2023-01-18T06:43:47.153Z,0.00
2023-01-18T06:44:47.135Z,0.00
2023-01-18T06:45:47.123Z,0.00
2023-01-18T06:46:47.112Z,0.00
2023-01-18T06:47:47.104Z,0.00
2023-01-18T06:48:47.117Z,0.00
2023-01-18T06:49:47.089Z,0.00
2023-01-18T06:50:47.080Z,0.00
2023-01-18T06:51:47.077Z,0.00
2023-01-18T06:52:47.076Z,0.00
2023-01-18T06:53:47.068Z,0.00
2023-01-18T06:54:47.049Z,0.00
2023-01-18T06:55:47.064Z,0.00
2023-01-18T06:56:47.027Z,0.00
2023-01-18T06:57:47.027Z,0.00
2023-01-18T06:58:47.023Z,0.00
2023-01-18T06:59:47.002Z,0.00
2023-01-18T07:00:47.161Z,0.00
2023-01-18T07:01:47.062Z,0.00
2023-01-18T07:02:46.977Z,0.00
2023-01-18T07:03:47.023Z,0.00
2023-01-18T07:04:46.961Z,0.00
2023-01-18T07:05:46.942Z,0.00
2023-01-18T07:06:46.934Z,0.00
2023-01-18T07:07:46.921Z,0.00
2023-01-18T07:08:46.915Z,0.00
2023-01-18T07:09:46.918Z,0.00
2023-01-18T07:10:46.895Z,0.00
2023-01-18T07:11:46.891Z,0.00
2023-01-18T07:12:46.879Z,0.00
2023-01-18T07:13:46.870Z,0.00
2023-01-18T07:14:46.872Z,0.00
2023-01-18T07:15:46.853Z,0.00
2023-01-18T07:16:46.872Z,0.00
2023-01-18T07:17:46.847Z,0.00
2023-01-18T07:18:46.837Z,0.00
2023-01-18T07:19:46.832Z,0.00
2023-01-18T07:20:46.809Z,0.00
2023-01-18T07:21:46.800Z,0.00
2023-01-18T07:22:46.790Z,0.00
2023-01-18T07:23:46.785Z,0.00
2023-01-18T07:24:46.788Z,0.00
2023-01-18T07:25:46.799Z,0.00
2023-01-18T07:26:46.760Z,0.00
2023-01-18T07:27:46.749Z,0.00
2023-01-18T07:28:46.751Z,0.00
2023-01-18T07:29:49.271Z,0.00
2023-01-18T07:30:46.713Z,5.62
2023-01-18T07:31:46.730Z,5.62
2023-01-18T07:32:46.694Z,5.62
2023-01-18T07:33:46.690Z,5.62
2023-01-18T07:34:46.692Z,5.62
2023-01-18T07:35:46.666Z,5.62
2023-01-18T07:36:46.653Z,5.62
2023-01-18T07:37:46.640Z,5.62
2023-01-18T07:38:46.637Z,5.62
2023-01-18T07:39:46.640Z,11.25
2023-01-18T07:40:46.621Z,11.25
2023-01-18T07:41:46.622Z,11.25
2023-01-18T07:42:46.604Z,11.25
2023-01-18T07:43:46.596Z,11.25
2023-01-18T07:44:46.589Z,11.25
2023-01-18T07:45:46.578Z,16.88
2023-01-18T07:46:46.569Z,16.88
2023-01-18T07:47:46.576Z,16.88
2023-01-18T07:48:46.550Z,16.88
2023-01-18T07:49:46.551Z,22.50
2023-01-18T07:50:46.533Z,22.50
2023-01-18T07:51:46.520Z,22.50
2023-01-18T07:52:46.523Z,22.50
2023-01-18T07:53:46.508Z,28.12
2023-01-18T07:54:46.510Z,28.12
2023-01-18T07:55:46.489Z,28.12
2023-01-18T07:56:46.494Z,28.12
2023-01-18T07:57:46.499Z,28.12
2023-01-18T07:58:46.492Z,33.75
2023-01-18T07:59:46.460Z,33.75
2023-01-18T08:00:46.492Z,33.75
2023-01-18T08:01:46.514Z,33.75
2023-01-18T08:02:46.436Z,39.38
2023-01-18T08:03:46.412Z,39.38
2023-01-18T08:04:46.413Z,39.38
2023-01-18T08:05:46.396Z,39.38
2023-01-18T08:06:46.386Z,39.38
2023-01-18T08:07:46.380Z,45.00
2023-01-18T08:08:46.368Z,45.00
2023-01-18T08:09:46.385Z,45.00
2023-01-18T08:10:46.359Z,45.00
2023-01-18T08:11:46.359Z,50.62
2023-01-18T08:12:46.331Z,50.62
2023-01-18T08:13:46.321Z,50.62
2023-01-18T08:14:46.323Z,56.25
2023-01-18T08:15:46.343Z,56.25
2023-01-18T08:16:46.320Z,56.25
2023-01-18T08:17:46.308Z,56.25
2023-01-18T08:18:46.286Z,56.25
2023-01-18T08:19:46.321Z,56.25
2023-01-18T08:20:46.251Z,56.25
2023-01-18T08:21:46.258Z,56.25
2023-01-18T08:22:46.245Z,61.88
2023-01-18T08:23:46.265Z,61.88
2023-01-18T08:24:46.239Z,61.88
2023-01-18T08:25:46.213Z,61.88
2023-01-18T08:26:46.200Z,61.88
2023-01-18T08:27:46.195Z,67.50
2023-01-18T08:28:46.186Z,73.12
2023-01-18T08:29:46.181Z,67.50
2023-01-18T08:30:46.273Z,67.50
2023-01-18T08:31:46.167Z,67.50
2023-01-18T08:32:46.143Z,67.50
2023-01-18T08:33:46.162Z,67.50
2023-01-18T08:34:46.129Z,67.50
2023-01-18T08:35:46.123Z,67.50
2023-01-18T08:36:46.106Z,73.12
2023-01-18T08:37:46.098Z,78.75
2023-01-18T08:38:46.106Z,78.75
2023-01-18T08:39:47.089Z,84.38
2023-01-18T08:40:46.172Z,84.38
2023-01-18T08:41:46.060Z,84.38
2023-01-18T08:42:46.058Z,84.38
2023-01-18T08:43:46.044Z,78.75
2023-01-18T08:44:46.061Z,78.75
2023-01-18T08:45:46.025Z,78.75
2023-01-18T08:46:46.065Z,73.12
2023-01-18T08:47:46.005Z,73.12
2023-01-18T08:48:45.998Z,73.12
2023-01-18T08:49:45.997Z,73.12
2023-01-18T08:50:46.046Z,73.12
2023-01-18T08:51:46.017Z,73.12
2023-01-18T08:52:45.968Z,73.12
2023-01-18T08:53:45.967Z,78.75
2023-01-18T08:54:45.949Z,78.75
2023-01-18T08:55:45.929Z,78.75
2023-01-18T08:56:45.933Z,78.75
2023-01-18T08:57:45.921Z,78.75
2023-01-18T08:58:46.044Z,78.75
2023-01-18T08:59:45.908Z,78.75
2023-01-18T09:00:46.088Z,78.75
2023-01-18T09:01:45.966Z,78.75
2023-01-18T09:02:45.896Z,78.75
2023-01-18T09:03:45.860Z,84.38
2023-01-18T09:04:45.863Z,84.38
2023-01-18T09:05:45.855Z,84.38
2023-01-18T09:06:45.844Z,84.38
2023-01-18T09:07:45.844Z,84.38
2023-01-18T09:08:45.838Z,84.38
2023-01-18T09:09:45.817Z,84.38
2023-01-18T09:10:45.783Z,78.75
2023-01-18T09:11:46.788Z,78.75
2023-01-18T09:12:45.778Z,78.75
2023-01-18T09:13:59.811Z,84.38
2023-01-18T09:14:47.772Z,84.38
2023-01-18T09:15:45.798Z,84.38
2023-01-18T09:16:45.738Z,84.38
2023-01-18T09:17:45.734Z,84.38
2023-01-18T09:18:46.741Z,90.00
2023-01-18T09:19:46.553Z,90.00
2023-01-18T09:20:45.704Z,95.62
2023-01-18T09:21:45.700Z,95.62
2023-01-18T09:22:45.690Z,95.62
2023-01-18T09:23:45.718Z,101.25
2023-01-18T09:24:45.691Z,106.88
2023-01-18T09:25:45.657Z,106.88
2023-01-18T09:26:45.651Z,123.75
2023-01-18T09:27:45.640Z,140.62
2023-01-18T09:28:45.629Z,157.50
2023-01-18T09:29:45.622Z,180.00
2023-01-18T09:30:45.627Z,202.50
2023-01-18T09:31:45.641Z,264.38
2023-01-18T09:32:45.599Z,309.38
2023-01-18T09:33:52.750Z,382.50
2023-01-18T09:34:47.571Z,444.38
2023-01-18T09:35:46.576Z,438.75
2023-01-18T09:36:45.575Z,416.25
2023-01-18T09:37:45.560Z,382.50
2023-01-18T09:38:45.535Z,343.12
2023-01-18T09:39:51.855Z,337.50
2023-01-18T09:40:47.536Z,354.38
2023-01-18T09:41:45.511Z,348.75
2023-01-18T09:42:45.502Z,354.38
2023-01-18T09:43:45.493Z,331.88
2023-01-18T09:44:45.484Z,320.62
2023-01-18T09:45:45.499Z,309.38
2023-01-18T09:46:45.547Z,315.00
2023-01-18T09:47:45.460Z,303.75
2023-01-18T09:48:45.448Z,320.62
2023-01-18T09:49:45.465Z,399.38
2023-01-18T09:50:45.454Z,438.75
2023-01-18T09:51:45.424Z,421.88
2023-01-18T09:52:45.414Z,421.88
2023-01-18T09:53:45.404Z,365.62
2023-01-18T09:54:45.396Z,320.62
2023-01-18T09:55:45.399Z,264.38
2023-01-18T09:56:45.379Z,253.12
2023-01-18T09:57:45.386Z,331.88
2023-01-18T09:58:45.359Z,399.38
2023-01-18T09:59:45.355Z,382.50
2023-01-18T10:00:45.477Z,427.50
2023-01-18T10:01:45.552Z,466.88
2023-01-18T10:02:45.368Z,466.88
2023-01-18T10:03:45.327Z,450.00
2023-01-18T10:04:45.341Z,461.25
2023-01-18T10:05:45.313Z,416.25
2023-01-18T10:06:45.285Z,399.38
2023-01-18T10:07:45.282Z,427.50
2023-01-18T10:08:45.302Z,438.75
2023-01-18T10:09:45.262Z,433.12
2023-01-18T10:10:45.263Z,421.88
2023-01-18T10:11:45.239Z,410.62
2023-01-18T10:12:45.241Z,427.50
2023-01-18T10:13:45.216Z,466.88
2023-01-18T10:14:45.233Z,455.62
2023-01-18T10:15:45.216Z,421.88
2023-01-18T10:16:45.191Z,472.50
2023-01-18T10:17:45.185Z,483.75
2023-01-18T10:18:45.180Z,551.25
2023-01-18T10:19:45.166Z,601.88
2023-01-18T10:20:45.179Z,540.00
2023-01-18T10:21:45.189Z,573.75
2023-01-18T10:22:45.148Z,579.38
2023-01-18T10:23:45.133Z,495.00
2023-01-18T10:24:45.142Z,495.00
2023-01-18T10:25:45.131Z,450.00
2023-01-18T10:26:45.114Z,309.38
2023-01-18T10:27:45.099Z,241.88
2023-01-18T10:28:45.095Z,213.75
2023-01-18T10:29:45.083Z,196.88
2023-01-18T10:30:45.083Z,191.25
2023-01-18T10:31:45.115Z,185.62
2023-01-18T10:32:45.051Z,185.62
2023-01-18T10:33:45.050Z,185.62
2023-01-18T10:34:45.090Z,185.62
2023-01-18T10:35:45.029Z,180.00
2023-01-18T10:36:45.013Z,180.00
2023-01-18T10:37:45.006Z,180.00
2023-01-18T10:38:45.002Z,180.00
2023-01-18T10:39:44.993Z,180.00
2023-01-18T10:40:44.980Z,174.38
2023-01-18T10:41:45.981Z,180.00
2023-01-18T10:42:44.963Z,180.00
2023-01-18T10:43:45.009Z,174.38
2023-01-18T10:44:44.941Z,174.38
2023-01-18T10:45:44.998Z,168.75
2023-01-18T10:46:44.923Z,168.75
2023-01-18T10:47:44.919Z,168.75
2023-01-18T10:48:44.917Z,163.12
2023-01-18T10:49:44.917Z,157.50
2023-01-18T10:50:44.895Z,151.88
2023-01-18T10:51:44.881Z,151.88
2023-01-18T10:52:44.872Z,157.50
2023-01-18T10:53:44.861Z,151.88
2023-01-18T10:54:44.853Z,151.88
2023-01-18T10:55:44.860Z,151.88
2023-01-18T10:56:44.839Z,146.25
2023-01-18T10:57:44.834Z,146.25
2023-01-18T10:58:44.820Z,146.25
2023-01-18T10:59:44.931Z,140.62
2023-01-18T11:00:44.846Z,140.62
2023-01-18T11:01:44.993Z,140.62
2023-01-18T11:03:16.693Z,140.62
2023-01-18T11:03:44.769Z,140.62
2023-01-18T11:04:44.765Z,140.62
2023-01-18T11:05:44.769Z,140.62
2023-01-18T11:06:44.757Z,140.62
2023-01-18T11:07:44.740Z,140.62
2023-01-18T11:08:44.729Z,140.62
2023-01-18T11:09:44.724Z,140.62
2023-01-18T11:10:44.733Z,135.00
2023-01-18T11:11:44.703Z,135.00
2023-01-18T11:12:44.696Z,135.00
2023-01-18T11:13:44.697Z,129.38
2023-01-18T11:14:44.671Z,129.38
2023-01-18T11:15:44.715Z,129.38
2023-01-18T11:16:44.735Z,129.38
2023-01-18T11:17:44.655Z,123.75
2023-01-18T11:18:44.649Z,123.75
2023-01-18T11:19:44.633Z,123.75
2023-01-18T11:20:44.655Z,123.75
2023-01-18T11:21:44.613Z,118.12
2023-01-18T11:22:44.601Z,118.12
2023-01-18T11:23:44.608Z,118.12
2023-01-18T11:24:44.585Z,118.12
2023-01-18T11:25:44.582Z,118.12
2023-01-18T11:26:44.586Z,112.50
2023-01-18T11:27:44.561Z,112.50
2023-01-18T11:28:44.556Z,112.50
2023-01-18T11:29:44.545Z,112.50
2023-01-18T11:30:44.530Z,112.50
2023-01-18T11:31:44.585Z,106.88
2023-01-18T11:32:44.538Z,106.88
2023-01-18T11:33:44.507Z,106.88
2023-01-18T11:34:44.510Z,106.88
2023-01-18T11:35:44.494Z,106.88
2023-01-18T11:36:44.490Z,106.88
2023-01-18T11:37:44.475Z,106.88
2023-01-18T11:38:44.464Z,106.88
2023-01-18T11:39:45.582Z,106.88
2023-01-18T11:40:45.448Z,106.88
2023-01-18T11:41:44.459Z,106.88
2023-01-18T11:42:44.429Z,106.88
2023-01-18T11:43:44.430Z,106.88
2023-01-18T11:44:44.412Z,106.88
2023-01-18T11:45:45.533Z,106.88
2023-01-18T11:46:45.404Z,106.88
2023-01-18T11:47:44.400Z,101.25
2023-01-18T11:48:44.386Z,106.88
2023-01-18T11:49:44.380Z,106.88
2023-01-18T11:50:44.358Z,106.88
2023-01-18T11:51:45.703Z,106.88
2023-01-18T11:52:45.375Z,106.88
2023-01-18T11:53:44.330Z,101.25
2023-01-18T11:54:44.324Z,106.88
2023-01-18T11:55:44.313Z,101.25
2023-01-18T11:56:44.319Z,101.25
2023-01-18T11:57:45.004Z,101.25
2023-01-18T11:58:45.294Z,101.25
2023-01-18T11:59:44.307Z,101.25
2023-01-18T12:00:44.294Z,101.25
2023-01-18T12:01:44.279Z,101.25
2023-01-18T12:02:44.251Z,101.25
2023-01-18T12:03:44.384Z,101.25
2023-01-18T12:04:44.239Z,95.62
2023-01-18T12:05:45.800Z,95.62
2023-01-18T12:06:45.236Z,95.62
2023-01-18T12:07:44.288Z,101.25
2023-01-18T12:08:44.199Z,95.62
2023-01-18T12:09:44.188Z,95.62
2023-01-18T12:10:44.178Z,95.62
2023-01-18T12:11:45.743Z,95.62
2023-01-18T12:12:45.170Z,95.62
2023-01-18T12:13:44.163Z,95.62
2023-01-18T12:14:44.156Z,95.62
2023-01-18T12:15:44.141Z,95.62
2023-01-18T12:16:44.189Z,90.00
2023-01-18T12:17:46.065Z,95.62
2023-01-18T12:18:45.115Z,95.62
2023-01-18T12:19:44.106Z,95.62
2023-01-18T12:20:44.096Z,95.62
2023-01-18T12:21:44.100Z,90.00
2023-01-18T12:22:44.115Z,90.00
2023-01-18T12:23:44.076Z,90.00
2023-01-18T12:24:45.878Z,90.00
2023-01-18T12:25:45.059Z,90.00
2023-01-18T12:26:44.052Z,90.00
2023-01-18T12:27:44.037Z,90.00
2023-01-18T12:28:44.025Z,90.00
2023-01-18T12:29:44.025Z,90.00
2023-01-18T12:30:44.045Z,84.38
2023-01-18T12:31:44.009Z,84.38
2023-01-18T12:32:44.001Z,84.38
2023-01-18T12:33:44.265Z,78.75
2023-01-18T12:34:44.961Z,78.75
2023-01-18T12:35:44.976Z,78.75
2023-01-18T12:36:43.974Z,78.75
2023-01-18T12:37:43.943Z,78.75
2023-01-18T12:38:43.934Z,78.75
2023-01-18T12:39:43.930Z,78.75
2023-01-18T12:40:43.921Z,78.75
2023-01-18T12:41:43.921Z,78.75
2023-01-18T12:42:43.900Z,78.75
2023-01-18T12:43:43.902Z,73.12
2023-01-18T12:44:43.934Z,73.12
2023-01-18T12:45:43.872Z,73.12
2023-01-18T12:46:43.878Z,73.12
2023-01-18T12:47:43.853Z,73.12
2023-01-18T12:48:43.847Z,73.12
2023-01-18T12:49:43.843Z,73.12
2023-01-18T12:50:43.828Z,73.12
2023-01-18T12:51:43.841Z,73.12
2023-01-18T12:52:43.820Z,73.12
2023-01-18T12:53:43.802Z,73.12
2023-01-18T12:54:43.796Z,73.12
2023-01-18T12:55:43.779Z,73.12
2023-01-18T12:56:43.788Z,73.12
2023-01-18T12:57:45.761Z,73.12
2023-01-18T12:58:43.749Z,73.12
2023-01-18T12:59:43.750Z,73.12
2023-01-18T13:00:43.746Z,73.12
2023-01-18T13:01:43.845Z,73.12
2023-01-18T13:02:43.756Z,73.12